This is the latest recevied weather packets stored in our database for station/object OK1FCB-1. If no packets are shown the sender has not sent any weather packets the latest 10 day(s).
| Time | Temp. | Humidity | Pressure | Rain* | Wind** | Luminosity | Snow |
|---|---|---|---|---|---|---|---|
| 1777962129 | 20.56° C | 42% | 1012.8 hPa | - | - | - | - |
| 1777961228 | 18.33° C | 45% | 1012.8 hPa | - | - | - | - |
| 1777959430 | 15.56° C | 49% | 1012.5 hPa | - | - | - | - |
| 1777958532 | 15° C | 51% | 1012.4 hPa | - | - | - | - |
| 1777957633 | 14.44° C | 54% | 1012.4 hPa | - | - | - | - |
| 1777955836 | 13.33° C | 56% | 1012.5 hPa | - | - | - | - |
| 1777954039 | 12.78° C | 58% | 1012.6 hPa | - | - | - | - |
| 1777951346 | 12.22° C | 60% | 1013.3 hPa | - | - | - | - |
| 1777950448 | 12.22° C | 60% | 1013.3 hPa | - | - | - | - |
| 1777949550 | 12.78° C | 60% | 1013.5 hPa | - | - | - | - |
| 1777934289 | 12.78° C | 64% | 1015.3 hPa | - | - | - | - |
| 1777929800 | 13.89° C | 59% | 1015.7 hPa | - | - | - | - |
| 1777928006 | 15° C | 57% | 1015.6 hPa | - | - | - | - |
| 1777927109 | 15° C | 57% | 1015.8 hPa | - | - | - | - |
| 1777926218 | 15.56° C | 56% | 1015.6 hPa | - | - | - | - |
| 1777926212 | 15.56° C | 56% | 1015.6 hPa | - | - | - | - |
| 1777920833 | 17.22° C | 49% | 1015.4 hPa | - | - | - | - |
| 1777920827 | 17.22° C | 49% | 1015.4 hPa | - | - | - | - |
| 1777919929 | 17.22° C | 47% | 1015.4 hPa | - | - | - | - |
| 1777919032 | 18.33° C | 45% | 1015.4 hPa | - | - | - | - |
| 1777917245 | 20.56° C | 41% | 1015.2 hPa | - | - | - | - |
| 1777917239 | 20.56° C | 41% | 1015.2 hPa | - | - | - | - |
| 1777914558 | 25.56° C | 33% | 1015.2 hPa | - | - | - | - |
| 1777914553 | 25.56° C | 33% | 1015.2 hPa | - | - | - | - |
| 1777913660 | 25.56° C | 34% | 1015.2 hPa | - | - | - | - |
* Rain since midnight (hover to see other rain measurements)
** Current wind speed in m/s (hover to see current wind gust speed)